sensor_id;sensor_type;location;lat;lon;timestamp;pressure;altitude;pressure_sealevel;temperature;humidity
14689;BME280;7432;48.728;9.154;2023-02-13T00:01:59;98440.22;;;0.64;99.78
14689;BME280;7432;48.728;9.154;2023-02-13T00:04:26;98442.75;;;0.64;99.12
14689;BME280;7432;48.728;9.154;2023-02-13T00:06:52;98440.19;;;0.66;99.44
14689;BME280;7432;48.728;9.154;2023-02-13T00:09:18;98443.38;;;0.71;99.83
14689;BME280;7432;48.728;9.154;2023-02-13T00:11:46;98444.34;;;0.67;99.66
14689;BME280;7432;48.728;9.154;2023-02-13T00:14:12;98441.88;;;0.65;98.93
14689;BME280;7432;48.728;9.154;2023-02-13T00:16:39;98436.13;;;0.60;99.53
14689;BME280;7432;48.728;9.154;2023-02-13T00:19:05;98440.38;;;0.59;100.00
14689;BME280;7432;48.728;9.154;2023-02-13T00:21:32;98443.56;;;0.65;100.00
14689;BME280;7432;48.728;9.154;2023-02-13T00:23:58;98432.66;;;0.63;99.49
14689;BME280;7432;48.728;9.154;2023-02-13T00:26:24;98434.50;;;0.57;99.93
14689;BME280;7432;48.728;9.154;2023-02-13T00:28:52;98429.59;;;0.53;99.51
14689;BME280;7432;48.728;9.154;2023-02-13T00:31:20;98434.66;;;0.53;99.59
14689;BME280;7432;48.728;9.154;2023-02-13T00:33:47;98438.88;;;0.54;99.90
14689;BME280;7432;48.728;9.154;2023-02-13T00:36:15;98440.50;;;0.55;99.89
14689;BME280;7432;48.728;9.154;2023-02-13T00:38:42;98437.25;;;0.51;99.15
14689;BME280;7432;48.728;9.154;2023-02-13T00:41:09;98435.75;;;0.46;99.66
14689;BME280;7432;48.728;9.154;2023-02-13T00:43:36;98434.19;;;0.42;99.68
14689;BME280;7432;48.728;9.154;2023-02-13T00:46:05;98435.09;;;0.41;100.00
14689;BME280;7432;48.728;9.154;2023-02-13T00:48:32;98429.91;;;0.44;99.97
14689;BME280;7432;48.728;9.154;2023-02-13T00:51:00;98439.34;;;0.39;100.00
14689;BME280;7432;48.728;9.154;2023-02-13T00:53:26;98436.13;;;0.35;100.00
14689;BME280;7432;48.728;9.154;2023-02-13T00:55:53;98436.81;;;0.39;99.61
14689;BME280;7432;48.728;9.154;2023-02-13T00:58:20;98436.72;;;0.42;99.89
14689;BME280;7432;48.728;9.154;2023-02-13T01:00:47;98427.19;;;0.24;99.30
14689;BME280;7432;48.728;9.154;2023-02-13T01:03:15;98443.56;;;0.40;99.39
14689;BME280;7432;48.728;9.154;2023-02-13T01:05:43;98429.53;;;0.30;99.43
14689;BME280;7432;48.728;9.154;2023-02-13T01:08:10;98429.31;;;0.36;100.00
14689;BME280;7432;48.728;9.154;2023-02-13T01:10:36;98421.72;;;0.36;100.00
14689;BME280;7432;48.728;9.154;2023-02-13T01:13:03;98422.63;;;0.35;99.33
14689;BME280;7432;48.728;9.154;2023-02-13T01:15:30;98425.00;;;0.39;99.91
14689;BME280;7432;48.728;9.154;2023-02-13T01:17:57;98431.66;;;0.42;99.41
14689;BME280;7432;48.728;9.154;2023-02-13T01:20:27;98433.53;;;0.37;99.90
14689;BME280;7432;48.728;9.154;2023-02-13T01:22:54;98435.38;;;0.32;99.95
14689;BME280;7432;48.728;9.154;2023-02-13T01:25:20;98433.00;;;0.27;99.63
14689;BME280;7432;48.728;9.154;2023-02-13T01:27:47;98428.72;;;0.28;100.00
14689;BME280;7432;48.728;9.154;2023-02-13T01:30:15;98431.25;;;0.29;100.00
14689;BME280;7432;48.728;9.154;2023-02-13T01:32:43;98421.84;;;0.33;100.00
14689;BME280;7432;48.728;9.154;2023-02-13T01:35:11;98429.66;;;0.25;99.91
14689;BME280;7432;48.728;9.154;2023-02-13T01:37:40;98415.41;;;0.23;100.00
14689;BME280;7432;48.728;9.154;2023-02-13T01:40:09;98411.16;;;0.23;99.84
14689;BME280;7432;48.728;9.154;2023-02-13T01:42:36;98414.72;;;0.18;99.26
14689;BME280;7432;48.728;9.154;2023-02-13T01:45:04;98416.50;;;0.14;100.00
14689;BME280;7432;48.728;9.154;2023-02-13T01:47:37;98411.34;;;0.17;100.00
14689;BME280;7432;48.728;9.154;2023-02-13T01:50:09;98420.47;;;0.23;99.54
14689;BME280;7432;48.728;9.154;2023-02-13T01:52:41;98418.13;;;0.17;100.00
14689;BME280;7432;48.728;9.154;2023-02-13T01:55:08;98414.78;;;0.16;100.00
14689;BME280;7432;48.728;9.154;2023-02-13T01:57:36;98415.00;;;0.09;99.88
14689;BME280;7432;48.728;9.154;2023-02-13T02:00:06;98412.28;;;0.15;99.77
14689;BME280;7432;48.728;9.154;2023-02-13T02:02:36;98409.59;;;0.19;100.00
14689;BME280;7432;48.728;9.154;2023-02-13T02:05:05;98414.91;;;0.12;100.00
14689;BME280;7432;48.728;9.154;2023-02-13T02:07:33;98413.22;;;0.12;99.91
14689;BME280;7432;48.728;9.154;2023-02-13T02:10:06;98420.91;;;0.09;99.89
14689;BME280;7432;48.728;9.154;2023-02-13T02:12:37;98408.16;;;0.12;100.00
14689;BME280;7432;48.728;9.154;2023-02-13T02:15:07;98413.19;;;0.14;100.00
14689;BME280;7432;48.728;9.154;2023-02-13T02:17:34;98404.34;;;-0.01;100.00
14689;BME280;7432;48.728;9.154;2023-02-13T02:20:11;98421.00;;;0.06;100.00
14689;BME280;7432;48.728;9.154;2023-02-13T02:22:58;98420.81;;;0.12;100.00
14689;BME280;7432;48.728;9.154;2023-02-13T02:25:51;98412.44;;;0.10;100.00
14689;BME280;7432;48.728;9.154;2023-02-13T02:28:38;98408.31;;;0.08;100.00
14689;BME280;7432;48.728;9.154;2023-02-13T02:31:20;98412.56;;;0.06;100.00
14689;BME280;7432;48.728;9.154;2023-02-13T02:34:05;98416.66;;;0.10;100.00
14689;BME280;7432;48.728;9.154;2023-02-13T02:36:46;98408.91;;;0.14;99.84
14689;BME280;7432;48.728;9.154;2023-02-13T02:39:22;98411.66;;;0.08;99.87
14689;BME280;7432;48.728;9.154;2023-02-13T02:41:58;98406.88;;;-0.01;100.00
14689;BME280;7432;48.728;9.154;2023-02-13T02:44:36;98407.75;;;-0.02;100.00
14689;BME280;7432;48.728;9.154;2023-02-13T02:47:08;98404.44;;;-0.04;100.00
14689;BME280;7432;48.728;9.154;2023-02-13T02:50:05;98409.34;;;0.00;100.00
14689;BME280;7432;48.728;9.154;2023-02-13T02:52:42;98410.53;;;-0.10;100.00
14689;BME280;7432;48.728;9.154;2023-02-13T02:55:19;98400.47;;;-0.11;100.00
14689;BME280;7432;48.728;9.154;2023-02-13T02:57:51;98407.75;;;-0.02;100.00
14689;BME280;7432;48.728;9.154;2023-02-13T03:00:40;98392.03;;;-0.12;100.00
14689;BME280;7432;48.728;9.154;2023-02-13T03:03:26;98411.34;;;-0.09;100.00
14689;BME280;7432;48.728;9.154;2023-02-13T03:06:16;98407.25;;;-0.13;100.00
14689;BME280;7432;48.728;9.154;2023-02-13T03:08:46;98408.16;;;-0.14;100.00
14689;BME280;7432;48.728;9.154;2023-02-13T03:11:34;98415.00;;;-0.18;100.00
14689;BME280;7432;48.728;9.154;2023-02-13T03:14:20;98411.53;;;-0.15;100.00
14689;BME280;7432;48.728;9.154;2023-02-13T03:16:47;98414.91;;;-0.15;100.00
14689;BME280;7432;48.728;9.154;2023-02-13T03:19:42;98416.50;;;-0.12;100.00
14689;BME280;7432;48.728;9.154;2023-02-13T03:22:36;98397.63;;;-0.28;100.00
14689;BME280;7432;48.728;9.154;2023-02-13T03:25:11;98417.59;;;-0.19;100.00
14689;BME280;7432;48.728;9.154;2023-02-13T03:27:45;98414.13;;;-0.17;100.00
14689;BME280;7432;48.728;9.154;2023-02-13T03:30:39;98416.69;;;-0.18;100.00
14689;BME280;7432;48.728;9.154;2023-02-13T03:33:19;98417.47;;;-0.16;100.00
14689;BME280;7432;48.728;9.154;2023-02-13T03:35:52;98418.41;;;-0.19;100.00
14689;BME280;7432;48.728;9.154;2023-02-13T03:38:46;98422.69;;;-0.21;100.00
14689;BME280;7432;48.728;9.154;2023-02-13T03:41:19;98407.16;;;-0.38;100.00
14689;BME280;7432;48.728;9.154;2023-02-13T03:43:57;98422.84;;;-0.25;100.00
14689;BME280;7432;48.728;9.154;2023-02-13T03:46:30;98423.78;;;-0.29;100.00
14689;BME280;7432;48.728;9.154;2023-02-13T03:48:58;98416.97;;;-0.27;99.83
14689;BME280;7432;48.728;9.154;2023-02-13T03:51:46;98430.50;;;-0.28;100.00
14689;BME280;7432;48.728;9.154;2023-02-13T03:54:20;98427.97;;;-0.28;100.00
14689;BME280;7432;48.728;9.154;2023-02-13T03:57:07;98434.09;;;-0.35;100.00
14689;BME280;7432;48.728;9.154;2023-02-13T03:59:51;98436.81;;;-0.41;100.00
14689;BME280;7432;48.728;9.154;2023-02-13T04:02:21;98440.13;;;-0.39;100.00
14689;BME280;7432;48.728;9.154;2023-02-13T04:04:54;98440.91;;;-0.37;100.00
14689;BME280;7432;48.728;9.154;2023-02-13T04:07:24;98433.13;;;-0.31;100.00
14689;BME280;7432;48.728;9.154;2023-02-13T04:10:00;98415.13;;;-0.50;100.00
14689;BME280;7432;48.728;9.154;2023-02-13T04:12:36;98435.09;;;-0.41;100.00
14689;BME280;7432;48.728;9.154;2023-02-13T04:15:08;98445.78;;;-0.31;100.00
14689;BME280;7432;48.728;9.154;2023-02-13T04:17:42;98437.69;;;-0.42;100.00
14689;BME280;7432;48.728;9.154;2023-02-13T04:20:10;98449.25;;;-0.34;100.00
14689;BME280;7432;48.728;9.154;2023-02-13T04:22:41;98447.63;;;-0.36;100.00
14689;BME280;7432;48.728;9.154;2023-02-13T04:27:35;98454.25;;;-0.32;100.00
14689;BME280;7432;48.728;9.154;2023-02-13T04:30:02;98448.53;;;-0.39;99.60
14689;BME280;7432;48.728;9.154;2023-02-13T04:32:29;98451.16;;;-0.42;100.00
14689;BME280;7432;48.728;9.154;2023-02-13T04:34:55;98458.66;;;-0.39;99.88
14689;BME280;7432;48.728;9.154;2023-02-13T04:37:21;98453.63;;;-0.40;99.89
14689;BME280;7432;48.728;9.154;2023-02-13T04:39:48;98450.19;;;-0.38;99.77
14689;BME280;7432;48.728;9.154;2023-02-13T04:42:15;98453.47;;;-0.34;99.68
14689;BME280;7432;48.728;9.154;2023-02-13T04:44:42;98448.66;;;-0.43;99.02
14689;BME280;7432;48.728;9.154;2023-02-13T04:47:08;98445.94;;;-0.36;99.31
14689;BME280;7432;48.728;9.154;2023-02-13T04:49:34;98443.41;;;-0.36;99.58
14689;BME280;7432;48.728;9.154;2023-02-13T04:52:01;98446.84;;;-0.38;99.42
14689;BME280;7432;48.728;9.154;2023-02-13T04:54:27;98448.47;;;-0.36;99.41
14689;BME280;7432;48.728;9.154;2023-02-13T04:56:53;98444.22;;;-0.35;99.61
14689;BME280;7432;48.728;9.154;2023-02-13T04:59:21;98452.72;;;-0.38;99.12
14689;BME280;7432;48.728;9.154;2023-02-13T05:01:47;98460.63;;;-0.48;99.00
14689;BME280;7432;48.728;9.154;2023-02-13T05:04:14;98457.09;;;-0.43;99.33
14689;BME280;7432;48.728;9.154;2023-02-13T05:06:41;98459.69;;;-0.44;99.04
14689;BME280;7432;48.728;9.154;2023-02-13T05:09:08;98454.72;;;-0.49;99.71
14689;BME280;7432;48.728;9.154;2023-02-13T05:11:35;98465.00;;;-0.53;99.95
14689;BME280;7432;48.728;9.154;2023-02-13T05:14:01;98459.09;;;-0.54;99.38
14689;BME280;7432;48.728;9.154;2023-02-13T05:16:29;98457.63;;;-0.61;100.00
14689;BME280;7432;48.728;9.154;2023-02-13T05:18:55;98454.31;;;-0.63;100.00
14689;BME280;7432;48.728;9.154;2023-02-13T05:21:21;98465.25;;;-0.63;99.88
14689;BME280;7432;48.728;9.154;2023-02-13T05:24:06;98455.03;;;-0.60;100.00
14689;BME280;7432;48.728;9.154;2023-02-13T05:26:32;98454.00;;;-0.52;99.99
14689;BME280;7432;48.728;9.154;2023-02-13T05:28:59;98462.47;;;-0.53;99.56
14689;BME280;7432;48.728;9.154;2023-02-13T05:31:44;98460.91;;;-0.57;99.45
14689;BME280;7432;48.728;9.154;2023-02-13T05:34:10;98452.59;;;-0.63;99.30
14689;BME280;7432;48.728;9.154;2023-02-13T05:36:36;98453.31;;;-0.57;99.19
14689;BME280;7432;48.728;9.154;2023-02-13T05:39:04;98457.63;;;-0.61;99.67
14689;BME280;7432;48.728;9.154;2023-02-13T05:41:31;98457.53;;;-0.58;99.43
14689;BME280;7432;48.728;9.154;2023-02-13T05:43:57;98454.25;;;-0.62;99.45
14689;BME280;7432;48.728;9.154;2023-02-13T05:46:23;98460.19;;;-0.63;99.94
14689;BME280;7432;48.728;9.154;2023-02-13T05:48:51;98461.75;;;-0.58;99.26
14689;BME280;7432;48.728;9.154;2023-02-13T05:51:18;98453.25;;;-0.56;99.65
14689;BME280;7432;48.728;9.154;2023-02-13T05:53:44;98450.59;;;-0.51;99.06
14689;BME280;7432;48.728;9.154;2023-02-13T05:56:11;98450.72;;;-0.56;98.91
14689;BME280;7432;48.728;9.154;2023-02-13T05:58:37;98455.31;;;-0.69;99.36
14689;BME280;7432;48.728;9.154;2023-02-13T06:01:03;98459.38;;;-0.63;100.00
14689;BME280;7432;48.728;9.154;2023-02-13T06:03:30;98456.00;;;-0.64;99.20
14689;BME280;7432;48.728;9.154;2023-02-13T06:05:58;98455.31;;;-0.69;99.14
14689;BME280;7432;48.728;9.154;2023-02-13T06:08:25;98451.81;;;-0.65;99.14
14689;BME280;7432;48.728;9.154;2023-02-13T06:10:51;98455.19;;;-0.66;99.21
14689;BME280;7432;48.728;9.154;2023-02-13T06:13:20;98448.66;;;-0.71;99.06
14689;BME280;7432;48.728;9.154;2023-02-13T06:15:47;98460.25;;;-0.66;98.94
14689;BME280;7432;48.728;9.154;2023-02-13T06:18:15;98462.97;;;-0.72;99.43
14689;BME280;7432;48.728;9.154;2023-02-13T06:20:41;98455.44;;;-0.73;99.27
14689;BME280;7432;48.728;9.154;2023-02-13T06:23:09;98459.47;;;-0.66;99.50
14689;BME280;7432;48.728;9.154;2023-02-13T06:25:35;98453.69;;;-0.71;98.96
14689;BME280;7432;48.728;9.154;2023-02-13T06:28:03;98459.56;;;-0.71;98.87
14689;BME280;7432;48.728;9.154;2023-02-13T06:30:29;98467.06;;;-0.68;98.77
14689;BME280;7432;48.728;9.154;2023-02-13T06:32:56;98462.00;;;-0.68;99.13
14689;BME280;7432;48.728;9.154;2023-02-13T06:35:23;98462.84;;;-0.67;98.80
14689;BME280;7432;48.728;9.154;2023-02-13T06:37:49;98468.75;;;-0.68;98.49
14689;BME280;7432;48.728;9.154;2023-02-13T06:40:17;98463.72;;;-0.68;98.59
14689;BME280;7432;48.728;9.154;2023-02-13T06:42:44;98468.75;;;-0.68;99.05
14689;BME280;7432;48.728;9.154;2023-02-13T06:45:12;98462.72;;;-0.63;99.26
14689;BME280;7432;48.728;9.154;2023-02-13T06:47:40;98460.06;;;-0.58;99.03
14689;BME280;7432;48.728;9.154;2023-02-13T06:50:08;98468.34;;;-0.53;98.55
14689;BME280;7432;48.728;9.154;2023-02-13T06:52:34;98464.97;;;-0.52;98.37
14689;BME280;7432;48.728;9.154;2023-02-13T06:55:01;98469.03;;;-0.48;98.15
14689;BME280;7432;48.728;9.154;2023-02-13T06:57:29;98464.69;;;-0.43;97.87
14689;BME280;7432;48.728;9.154;2023-02-13T06:59:57;98472.09;;;-0.37;98.08
14689;BME280;7432;48.728;9.154;2023-02-13T07:02:23;98472.28;;;-0.43;96.79
14689;BME280;7432;48.728;9.154;2023-02-13T07:04:50;98468.66;;;-0.34;97.46
14689;BME280;7432;48.728;9.154;2023-02-13T07:07:16;98474.22;;;-0.23;97.54
14689;BME280;7432;48.728;9.154;2023-02-13T07:09:42;98475.75;;;-0.18;97.17
14689;BME280;7432;48.728;9.154;2023-02-13T07:12:09;98473.81;;;-0.10;97.03
14689;BME280;7432;48.728;9.154;2023-02-13T07:14:36;98476.78;;;0.03;96.50
14689;BME280;7432;48.728;9.154;2023-02-13T07:17:03;98473.34;;;0.06;96.47
14689;BME280;7432;48.728;9.154;2023-02-13T07:19:29;98478.19;;;0.13;96.10
14689;BME280;7432;48.728;9.154;2023-02-13T07:21:56;98480.31;;;0.25;95.34
14689;BME280;7432;48.728;9.154;2023-02-13T07:24:23;98479.28;;;0.32;95.00
14689;BME280;7432;48.728;9.154;2023-02-13T07:26:50;98481.66;;;0.37;95.50
14689;BME280;7432;48.728;9.154;2023-02-13T07:29:16;98481.94;;;0.54;96.90
14689;BME280;7432;48.728;9.154;2023-02-13T07:31:44;98480.72;;;0.66;96.57
14689;BME280;7432;48.728;9.154;2023-02-13T07:34:10;98482.81;;;0.79;97.30
14689;BME280;7432;48.728;9.154;2023-02-13T07:36:36;98487.63;;;0.87;96.71
14689;BME280;7432;48.728;9.154;2023-02-13T07:39:03;98479.66;;;0.97;96.55
14689;BME280;7432;48.728;9.154;2023-02-13T07:41:29;98488.44;;;1.12;96.85
14689;BME280;7432;48.728;9.154;2023-02-13T07:43:55;98486.03;;;1.32;96.33
14689;BME280;7432;48.728;9.154;2023-02-13T07:46:22;98488.78;;;1.49;95.82
14689;BME280;7432;48.728;9.154;2023-02-13T07:48:52;98495.50;;;1.97;96.05
14689;BME280;7432;48.728;9.154;2023-02-13T07:51:18;98490.78;;;3.89;91.89
14689;BME280;7432;48.728;9.154;2023-02-13T07:53:49;98488.88;;;5.97;84.42
14689;BME280;7432;48.728;9.154;2023-02-13T07:56:15;98501.34;;;8.21;73.15
14689;BME280;7432;48.728;9.154;2023-02-13T07:58:43;98505.41;;;10.28;64.70
14689;BME280;7432;48.728;9.154;2023-02-13T08:01:11;98504.44;;;12.02;58.27
14689;BME280;7432;48.728;9.154;2023-02-13T08:03:38;98506.44;;;13.46;52.95
14689;BME280;7432;48.728;9.154;2023-02-13T08:06:07;98514.31;;;14.93;48.78
14689;BME280;7432;48.728;9.154;2023-02-13T08:08:34;98513.91;;;15.82;45.05
14689;BME280;7432;48.728;9.154;2023-02-13T08:11:03;98513.56;;;16.67;43.42
14689;BME280;7432;48.728;9.154;2023-02-13T08:13:48;98510.09;;;17.96;40.95
14689;BME280;7432;48.728;9.154;2023-02-13T08:16:15;98506.41;;;18.65;38.92
14689;BME280;7432;48.728;9.154;2023-02-13T08:18:42;98510.69;;;19.38;37.18
14689;BME280;7432;48.728;9.154;2023-02-13T08:21:09;98516.66;;;20.18;34.94
14689;BME280;7432;48.728;9.154;2023-02-13T08:23:36;98515.25;;;20.92;34.78
14689;BME280;7432;48.728;9.154;2023-02-13T08:26:02;98510.19;;;21.65;33.06
14689;BME280;7432;48.728;9.154;2023-02-13T08:28:29;98517.41;;;22.57;32.17
14689;BME280;7432;48.728;9.154;2023-02-13T08:30:55;98511.78;;;23.38;31.17
14689;BME280;7432;48.728;9.154;2023-02-13T08:33:21;98522.38;;;23.51;30.64
14689;BME280;7432;48.728;9.154;2023-02-13T08:35:48;98517.97;;;23.58;29.48
14689;BME280;7432;48.728;9.154;2023-02-13T08:38:16;98502.34;;;24.26;29.46
14689;BME280;7432;48.728;9.154;2023-02-13T08:40:42;98500.56;;;24.39;29.10
14689;BME280;7432;48.728;9.154;2023-02-13T08:43:08;98503.53;;;24.16;28.69
14689;BME280;7432;48.728;9.154;2023-02-13T08:45:35;98497.41;;;24.63;28.89
14689;BME280;7432;48.728;9.154;2023-02-13T08:48:02;98504.75;;;24.88;27.88
14689;BME280;7432;48.728;9.154;2023-02-13T08:50:29;98492.97;;;25.36;27.79
14689;BME280;7432;48.728;9.154;2023-02-13T08:52:57;98493.13;;;25.87;27.40
14689;BME280;7432;48.728;9.154;2023-02-13T08:55:25;98492.81;;;25.57;27.12
14689;BME280;7432;48.728;9.154;2023-02-13T08:57:51;98490.75;;;25.59;26.86
14689;BME280;7432;48.728;9.154;2023-02-13T09:00:18;98490.38;;;25.10;27.56
14689;BME280;7432;48.728;9.154;2023-02-13T09:02:45;98484.66;;;25.59;26.99
14689;BME280;7432;48.728;9.154;2023-02-13T09:05:11;98490.78;;;23.86;27.43
14689;BME280;7432;48.728;9.154;2023-02-13T09:07:37;98497.66;;;23.46;28.86
14689;BME280;7432;48.728;9.154;2023-02-13T09:10:05;98473.81;;;20.27;32.46
14689;BME280;7432;48.728;9.154;2023-02-13T09:12:33;98488.03;;;17.05;37.80
14689;BME280;7432;48.728;9.154;2023-02-13T09:14:59;98483.88;;;14.95;41.30
14689;BME280;7432;48.728;9.154;2023-02-13T09:17:26;98474.97;;;12.68;46.12
14689;BME280;7432;48.728;9.154;2023-02-13T09:19:52;98473.44;;;11.35;50.22
14689;BME280;7432;48.728;9.154;2023-02-13T09:22:18;98477.41;;;10.24;53.93
14689;BME280;7432;48.728;9.154;2023-02-13T09:24:45;98473.06;;;9.88;55.83
14689;BME280;7432;48.728;9.154;2023-02-13T09:27:11;98475.19;;;9.07;58.36
14689;BME280;7432;48.728;9.154;2023-02-13T09:29:39;98473.00;;;8.76;59.16
14689;BME280;7432;48.728;9.154;2023-02-13T09:32:05;98479.38;;;8.44;61.56
14689;BME280;7432;48.728;9.154;2023-02-13T09:34:32;98476.53;;;8.07;62.89
14689;BME280;7432;48.728;9.154;2023-02-13T09:36:58;98472.75;;;7.58;65.72
14689;BME280;7432;48.728;9.154;2023-02-13T09:39:24;98476.63;;;7.51;65.44
14689;BME280;7432;48.728;9.154;2023-02-13T09:41:52;98479.72;;;7.28;66.75
14689;BME280;7432;48.728;9.154;2023-02-13T09:44:24;98469.75;;;7.23;66.44
14689;BME280;7432;48.728;9.154;2023-02-13T09:47:03;98490.88;;;7.12;67.59
14689;BME280;7432;48.728;9.154;2023-02-13T09:49:34;98485.00;;;7.10;67.97
14689;BME280;7432;48.728;9.154;2023-02-13T09:52:02;98489.91;;;6.55;69.23
14689;BME280;7432;48.728;9.154;2023-02-13T09:54:28;98487.47;;;6.68;70.82
14689;BME280;7432;48.728;9.154;2023-02-13T09:56:59;98498.00;;;6.48;70.25
14689;BME280;7432;48.728;9.154;2023-02-13T09:59:38;98488.13;;;6.42;70.48
14689;BME280;7432;48.728;9.154;2023-02-13T10:02:21;98487.88;;;6.15;72.47
14689;BME280;7432;48.728;9.154;2023-02-13T10:04:56;98487.97;;;6.14;72.08
14689;BME280;7432;48.728;9.154;2023-02-13T10:07:34;98485.44;;;5.98;74.29
14689;BME280;7432;48.728;9.154;2023-02-13T10:10:11;98494.25;;;6.08;73.75
14689;BME280;7432;48.728;9.154;2023-02-13T10:12:55;98495.56;;;6.15;74.01
14689;BME280;7432;48.728;9.154;2023-02-13T10:15:27;98487.13;;;6.29;73.84
14689;BME280;7432;48.728;9.154;2023-02-13T10:18:00;98488.88;;;6.28;73.13
14689;BME280;7432;48.728;9.154;2023-02-13T10:20:31;98489.84;;;6.26;73.04
14689;BME280;7432;48.728;9.154;2023-02-13T10:23:07;98491.50;;;6.27;73.50
14689;BME280;7432;48.728;9.154;2023-02-13T10:25:43;98476.25;;;6.10;73.51
14689;BME280;7432;48.728;9.154;2023-02-13T10:28:15;98487.22;;;5.96;73.54
14689;BME280;7432;48.728;9.154;2023-02-13T10:30:49;98492.00;;;6.18;74.16
14689;BME280;7432;48.728;9.154;2023-02-13T10:33:22;98491.59;;;6.25;73.58
14689;BME280;7432;48.728;9.154;2023-02-13T10:35:57;98493.63;;;6.34;74.01
14689;BME280;7432;48.728;9.154;2023-02-13T10:38:27;98491.75;;;6.38;74.22
14689;BME280;7432;48.728;9.154;2023-02-13T10:41:04;98477.97;;;6.40;74.12
14689;BME280;7432;48.728;9.154;2023-02-13T10:43:37;98479.44;;;6.29;73.33
14689;BME280;7432;48.728;9.154;2023-02-13T10:46:10;98480.44;;;6.42;73.98
14689;BME280;7432;48.728;9.154;2023-02-13T10:48:58;98478.38;;;6.33;72.26
14689;BME280;7432;48.728;9.154;2023-02-13T10:51:32;98478.72;;;6.27;72.96
14689;BME280;7432;48.728;9.154;2023-02-13T10:54:27;98475.81;;;6.33;72.67
14689;BME280;7432;48.728;9.154;2023-02-13T10:57:04;98477.56;;;6.32;72.59
14689;BME280;7432;48.728;9.154;2023-02-13T10:59:53;98466.59;;;6.30;73.44
14689;BME280;7432;48.728;9.154;2023-02-13T11:02:25;98465.59;;;6.33;73.21
14689;BME280;7432;48.728;9.154;2023-02-13T11:04:57;98459.66;;;6.32;73.37
14689;BME280;7432;48.728;9.154;2023-02-13T11:07:25;98457.00;;;6.34;73.17
14689;BME280;7432;48.728;9.154;2023-02-13T11:09:54;98455.25;;;6.34;73.37
14689;BME280;7432;48.728;9.154;2023-02-13T11:12:25;98451.31;;;6.44;73.91
14689;BME280;7432;48.728;9.154;2023-02-13T11:14:56;98458.59;;;6.36;72.89
14689;BME280;7432;48.728;9.154;2023-02-13T11:17:24;98452.72;;;6.34;73.58
14689;BME280;7432;48.728;9.154;2023-02-13T11:19:54;98453.63;;;6.18;73.38
14689;BME280;7432;48.728;9.154;2023-02-13T11:22:28;98449.44;;;6.17;73.61
14689;BME280;7432;48.728;9.154;2023-02-13T11:24:58;98443.50;;;6.16;74.09
14689;BME280;7432;48.728;9.154;2023-02-13T11:27:27;98445.41;;;6.28;74.37
14689;BME280;7432;48.728;9.154;2023-02-13T11:29:56;98443.00;;;6.25;73.89
14689;BME280;7432;48.728;9.154;2023-02-13T11:32:23;98430.44;;;6.21;73.28
14689;BME280;7432;48.728;9.154;2023-02-13T11:34:51;98449.47;;;6.46;72.43
14689;BME280;7432;48.728;9.154;2023-02-13T11:37:25;98460.44;;;6.48;71.07
14689;BME280;7432;48.728;9.154;2023-02-13T11:39:54;98462.56;;;6.56;71.18
14689;BME280;7432;48.728;9.154;2023-02-13T11:42:25;98448.97;;;6.55;71.15
14689;BME280;7432;48.728;9.154;2023-02-13T11:44:54;98454.16;;;6.54;70.43
14689;BME280;7432;48.728;9.154;2023-02-13T11:47:32;98447.88;;;6.60;70.82
14689;BME280;7432;48.728;9.154;2023-02-13T11:49:59;98442.75;;;6.60;69.80
14689;BME280;7432;48.728;9.154;2023-02-13T11:52:28;98449.41;;;6.62;70.09
14689;BME280;7432;48.728;9.154;2023-02-13T11:54:57;98443.41;;;6.63;71.22
14689;BME280;7432;48.728;9.154;2023-02-13T11:57:28;98446.25;;;6.73;69.84
14689;BME280;7432;48.728;9.154;2023-02-13T11:59:55;98445.00;;;6.80;68.05
14689;BME280;7432;48.728;9.154;2023-02-13T12:02:23;98438.00;;;6.68;68.86
14689;BME280;7432;48.728;9.154;2023-02-13T12:04:51;98439.22;;;6.76;69.04
14689;BME280;7432;48.728;9.154;2023-02-13T12:07:21;98439.06;;;6.79;70.20
14689;BME280;7432;48.728;9.154;2023-02-13T12:09:54;98432.63;;;6.72;70.87
14689;BME280;7432;48.728;9.154;2023-02-13T12:12:27;98435.28;;;6.71;71.15
14689;BME280;7432;48.728;9.154;2023-02-13T12:14:55;98440.66;;;6.66;70.51
14689;BME280;7432;48.728;9.154;2023-02-13T12:17:23;98439.13;;;6.64;70.92
14689;BME280;7432;48.728;9.154;2023-02-13T12:19:51;98434.19;;;6.75;71.07
14689;BME280;7432;48.728;9.154;2023-02-13T12:22:28;98426.06;;;6.82;70.68
14689;BME280;7432;48.728;9.154;2023-02-13T12:25:25;98423.69;;;6.79;71.25
14689;BME280;7432;48.728;9.154;2023-02-13T12:28:06;98427.25;;;6.77;73.08
14689;BME280;7432;48.728;9.154;2023-02-13T12:30:50;98430.47;;;6.80;72.17
14689;BME280;7432;48.728;9.154;2023-02-13T12:33:32;98431.25;;;6.81;72.08
14689;BME280;7432;48.728;9.154;2023-02-13T12:36:09;98431.03;;;6.85;72.13
14689;BME280;7432;48.728;9.154;2023-02-13T12:38:52;98430.00;;;6.88;72.51
14689;BME280;7432;48.728;9.154;2023-02-13T12:41:27;98420.78;;;6.85;72.85
14689;BME280;7432;48.728;9.154;2023-02-13T12:44:32;98424.72;;;6.91;69.55
14689;BME280;7432;48.728;9.154;2023-02-13T12:47:12;98424.44;;;6.95;71.27
14689;BME280;7432;48.728;9.154;2023-02-13T12:49:56;98414.91;;;6.97;70.19
14689;BME280;7432;48.728;9.154;2023-02-13T12:52:34;98413.00;;;7.01;71.65
14689;BME280;7432;48.728;9.154;2023-02-13T12:55:17;98415.38;;;7.04;71.16
14689;BME280;7432;48.728;9.154;2023-02-13T12:57:55;98412.66;;;7.07;72.29
14689;BME280;7432;48.728;9.154;2023-02-13T13:00:36;98409.34;;;7.19;73.08
14689;BME280;7432;48.728;9.154;2023-02-13T13:03:24;98413.03;;;7.15;73.64
14689;BME280;7432;48.728;9.154;2023-02-13T13:06:03;98413.47;;;7.22;73.02
14689;BME280;7432;48.728;9.154;2023-02-13T13:08:47;98408.44;;;7.20;73.92
14689;BME280;7432;48.728;9.154;2023-02-13T13:11:28;98406.72;;;7.21;73.64
14689;BME280;7432;48.728;9.154;2023-02-13T13:14:05;98396.91;;;7.27;72.80
14689;BME280;7432;48.728;9.154;2023-02-13T13:16:40;98399.28;;;7.30;73.34
14689;BME280;7432;48.728;9.154;2023-02-13T13:19:16;98400.38;;;7.26;73.05
14689;BME280;7432;48.728;9.154;2023-02-13T13:21:47;98404.69;;;7.26;73.45
14689;BME280;7432;48.728;9.154;2023-02-13T13:24:25;98397.28;;;7.21;73.60
14689;BME280;7432;48.728;9.154;2023-02-13T13:26:55;98405.78;;;7.22;72.72
14689;BME280;7432;48.728;9.154;2023-02-13T13:29:25;98397.38;;;7.20;73.28
14689;BME280;7432;48.728;9.154;2023-02-13T13:31:56;98397.53;;;7.16;73.23
14689;BME280;7432;48.728;9.154;2023-02-13T13:34:26;98394.38;;;7.13;74.38
14689;BME280;7432;48.728;9.154;2023-02-13T13:36:58;98390.50;;;7.20;72.70
14689;BME280;7432;48.728;9.154;2023-02-13T13:39:35;98393.53;;;7.27;72.56